Time;durP1;ratioP1;P1;durP2;ratioP2;P2;SDS_P1;SDS_P2;PMS_P1;PMS_P2;Temp;Humidity;BMP_temperature;BMP_pressure;BME280_temperature;BME280_humidity;BME280_pressure;Samples;Min_cycle;Max_cycle;Signal;HPM_P1;HPM_P2
2023/05/05 00:00:21;;;;;;;5.83;1.70;;;;;;;18.51;58.05;100124.91;5061690;28;20041;-74
2023/05/05 00:02:47;;;;;;;5.23;1.70;;;;;;;18.49;58.21;100121.44;5057793;28;20468;-74
2023/05/05 00:05:13;;;;;;;9.83;2.60;;;;;;;18.47;58.12;100120.63;5071525;28;20304;-74
2023/05/05 00:07:38;;;;;;;6.75;1.80;;;;;;;18.51;57.89;100117.75;5077455;28;20032;-74
2023/05/05 00:10:04;;;;;;;9.40;1.57;;;;;;;18.55;57.92;100109.63;5073842;28;20036;-74
2023/05/05 00:12:29;;;;;;;6.22;2.00;;;;;;;18.49;57.92;100106.28;5057251;28;20024;-74
2023/05/05 00:14:55;;;;;;;8.97;1.83;;;;;;;18.38;58.53;100104.97;5056903;28;20032;-74
2023/05/05 00:17:21;;;;;;;6.20;1.77;;;;;;;18.31;58.39;100099.88;5051697;28;20024;-74
2023/05/05 00:19:46;;;;;;;6.63;1.75;;;;;;;18.30;58.46;100097.28;5057323;28;20025;-74
2023/05/05 00:22:11;;;;;;;8.30;1.67;;;;;;;18.31;58.16;100089.22;5057231;28;20053;-74
2023/05/05 00:24:37;;;;;;;5.90;1.67;;;;;;;18.33;58.07;100091.84;5070013;28;20393;-74
2023/05/05 00:27:02;;;;;;;8.45;1.48;;;;;;;18.29;57.96;100090.19;5061894;28;20848;-74
2023/05/05 00:29:28;;;;;;;8.03;2.10;;;;;;;18.22;58.23;100094.94;5056827;28;20033;-74
2023/05/05 00:31:55;;;;;;;6.18;1.85;;;;;;;18.18;58.17;100082.63;5056830;28;20053;-74
2023/05/05 00:34:20;;;;;;;7.32;1.83;;;;;;;18.10;58.51;100068.75;5072662;28;20024;-74
2023/05/05 00:36:46;;;;;;;9.00;1.83;;;;;;;18.04;58.72;100080.50;5076896;28;20032;-74
2023/05/05 00:39:11;;;;;;;8.20;2.23;;;;;;;18.04;58.41;100070.72;5076879;28;20017;-74
2023/05/05 00:41:36;;;;;;;7.50;2.03;;;;;;;18.02;58.75;100067.25;5068296;28;20029;-74
2023/05/05 00:44:02;;;;;;;7.73;1.33;;;;;;;17.97;58.77;100065.66;5074032;28;20113;-74
2023/05/05 00:46:29;;;;;;;9.27;1.83;;;;;;;17.94;58.84;100058.63;5076549;28;20274;-74
2023/05/05 00:48:55;;;;;;;7.22;2.00;;;;;;;17.94;58.56;100059.50;5058947;28;20059;-74
2023/05/05 00:51:21;;;;;;;7.80;1.60;;;;;;;17.94;58.83;100063.94;5068571;28;20028;-74
2023/05/05 00:53:47;;;;;;;6.45;1.70;;;;;;;17.92;58.75;100063.16;5056012;28;20524;-74
2023/05/05 00:56:14;;;;;;;5.43;1.60;;;;;;;17.91;58.78;100062.28;5056483;28;20112;-74
2023/05/05 00:58:40;;;;;;;7.53;1.70;;;;;;;17.89;58.83;100056.16;5056242;28;20049;-74
2023/05/05 01:01:06;;;;;;;7.10;1.70;;;;;;;17.87;58.74;100046.47;5052283;28;20036;-74
2023/05/05 01:03:32;;;;;;;7.03;1.70;;;;;;;17.89;58.77;100041.94;5076445;28;20027;-74
2023/05/05 01:06:24;;;;;;;5.13;1.43;;;;;;;17.89;58.87;100039.28;5076608;28;20050;-74
2023/05/05 01:09:18;;;;;;;7.68;1.48;;;;;;;17.87;58.81;100025.16;5076240;28;20496;-74
2023/05/05 01:12:08;;;;;;;4.47;1.30;;;;;;;17.89;58.72;100029.53;5060059;28;20028;-74
2023/05/05 01:14:39;;;;;;;6.13;1.60;;;;;;;17.92;58.60;100020.53;5056132;28;20023;-74
2023/05/05 01:17:16;;;;;;;7.65;1.40;;;;;;;17.90;58.47;100023.25;5070647;28;20028;-74
2023/05/05 01:19:51;;;;;;;7.13;1.80;;;;;;;17.88;58.17;100021.56;5038344;28;20083;-74
2023/05/05 01:22:20;;;;;;;9.98;1.30;;;;;;;17.83;58.10;100023.56;5056492;28;20025;-74
2023/05/05 01:25:11;;;;;;;5.85;1.20;;;;;;;17.85;57.96;100021.69;5069584;28;20033;-74
2023/05/05 01:28:08;;;;;;;4.18;1.40;;;;;;;17.88;57.88;100021.56;5061234;28;20096;-74
2023/05/05 01:31:05;;;;;;;5.32;1.30;;;;;;;17.91;57.50;100024.13;5017575;28;20112;-74
2023/05/05 01:33:35;;;;;;;7.57;1.50;;;;;;;17.91;57.31;100017.00;5065264;28;20590;-74
2023/05/05 01:36:10;;;;;;;8.07;1.45;;;;;;;17.93;57.30;100015.16;5076117;28;20484;-74
2023/05/05 01:38:40;;;;;;;6.00;1.60;;;;;;;17.88;56.86;100011.81;5076251;28;20039;-74
2023/05/05 01:41:18;;;;;;;6.15;1.48;;;;;;;17.87;57.06;100011.84;5071979;28;20013;-74
2023/05/05 01:43:47;;;;;;;5.63;1.08;;;;;;;17.85;56.84;100006.59;5056280;28;20025;-74
2023/05/05 01:46:14;;;;;;;6.10;1.50;;;;;;;17.73;56.72;100007.94;5062857;28;20019;-74
2023/05/05 01:48:41;;;;;;;6.63;1.42;;;;;;;17.73;56.72;100012.38;5075926;28;20032;-74
2023/05/05 01:51:07;;;;;;;6.47;1.58;;;;;;;17.71;56.72;100001.78;5051011;28;20028;-74
2023/05/05 01:53:34;;;;;;;4.93;1.17;;;;;;;17.71;56.54;99996.44;5056121;28;20021;-74
2023/05/05 01:56:01;;;;;;;4.97;1.38;;;;;;;17.70;56.42;99997.38;5055953;28;20029;-74
2023/05/05 01:58:28;;;;;;;5.73;1.10;;;;;;;17.71;56.10;99992.94;5055636;28;20021;-74
2023/05/05 02:00:56;;;;;;;5.32;1.27;;;;;;;17.70;56.08;99999.19;5060759;28;20112;-74
2023/05/05 02:03:23;;;;;;;7.13;1.30;;;;;;;17.65;55.92;99988.69;5055909;28;20029;-74
2023/05/05 02:05:50;;;;;;;6.70;1.60;;;;;;;17.63;55.92;99994.09;5057716;28;20021;-74
2023/05/05 02:08:16;;;;;;;4.57;1.23;;;;;;;17.59;55.75;100004.91;5041636;28;20055;-74
2023/05/05 02:10:43;;;;;;;5.60;1.20;;;;;;;17.56;55.82;100002.38;5071053;28;20540;-74
2023/05/05 02:13:17;;;;;;;6.45;1.15;;;;;;;17.53;55.76;100011.31;5059421;28;20036;-74
2023/05/05 02:15:43;;;;;;;4.75;1.50;;;;;;;17.53;55.82;100007.81;5046649;28;20028;-74
2023/05/05 02:18:09;;;;;;;5.18;1.30;;;;;;;17.54;55.86;100012.22;5067351;28;20033;-74
2023/05/05 02:20:39;;;;;;;4.37;1.20;;;;;;;17.57;55.94;100006.75;5059355;28;20033;-74
2023/05/05 02:23:06;;;;;;;6.47;1.30;;;;;;;17.63;55.87;100004.75;5044357;28;20107;-74
2023/05/05 02:25:39;;;;;;;8.07;1.20;;;;;;;17.65;55.63;100004.66;5070735;28;20031;-73
2023/05/05 02:28:14;;;;;;;8.77;1.50;;;;;;;17.68;55.56;99998.38;5043948;28;20078;-74
2023/05/05 02:30:41;;;;;;;7.85;1.30;;;;;;;17.68;55.63;100007.22;5041257;28;20037;-74
2023/05/05 02:33:09;;;;;;;8.23;1.33;;;;;;;17.66;55.61;100001.06;5060341;28;20024;-73
2023/05/05 02:35:38;;;;;;;7.47;1.40;;;;;;;17.62;55.19;100007.44;5080856;28;20020;-73
2023/05/05 02:38:08;;;;;;;5.35;1.40;;;;;;;17.58;55.25;100008.50;5079914;28;20032;-73
2023/05/05 02:40:35;;;;;;;6.38;1.15;;;;;;;17.49;55.42;100005.25;5061868;28;20031;-74
2023/05/05 02:43:05;;;;;;;4.45;1.05;;;;;;;17.45;55.22;100008.94;5059496;28;20056;-74
2023/05/05 02:45:31;;;;;;;5.60;1.37;;;;;;;17.40;55.60;100005.59;5058669;28;20021;-74
2023/05/05 02:48:00;;;;;;;4.95;1.30;;;;;;;17.37;55.46;100003.03;5059201;28;20388;-74
2023/05/05 02:50:25;;;;;;;7.90;1.40;;;;;;;17.37;55.51;100011.03;5045424;28;20035;-74
2023/05/05 02:52:51;;;;;;;5.57;1.20;;;;;;;17.40;55.60;100004.72;5045668;28;20099;-74
2023/05/05 02:55:16;;;;;;;6.90;1.33;;;;;;;17.41;55.58;100012.66;5078886;28;20028;-74
2023/05/05 02:58:07;;;;;;;6.23;1.30;;;;;;;17.43;55.65;100016.13;5078996;28;20082;-74
2023/05/05 03:00:38;;;;;;;6.75;1.35;;;;;;;17.41;55.81;100006.47;5068663;28;20128;-74
2023/05/05 03:03:15;;;;;;;4.35;1.30;;;;;;;17.42;55.80;100017.03;5058942;28;20029;-74
2023/05/05 03:05:48;;;;;;;4.95;1.25;;;;;;;17.42;55.77;100011.72;5040708;28;20551;-74
2023/05/05 03:08:25;;;;;;;5.53;1.38;;;;;;;17.42;55.91;100017.03;5058605;28;20025;-74
2023/05/05 03:11:22;;;;;;;5.57;1.30;;;;;;;17.40;56.41;100020.72;5069487;28;20037;-73
2023/05/05 03:13:52;;;;;;;6.40;1.23;;;;;;;17.40;56.15;100012.72;5058845;28;20036;-74
2023/05/05 03:16:22;;;;;;;6.75;1.40;;;;;;;17.39;56.00;100013.66;5085664;28;20111;-73
2023/05/05 03:18:49;;;;;;;6.72;1.52;;;;;;;17.37;56.05;100011.03;5057789;28;20079;-73
2023/05/05 03:21:15;;;;;;;6.95;1.35;;;;;;;17.35;56.02;100003.09;5058319;28;20439;-73
2023/05/05 03:23:41;;;;;;;5.30;1.27;;;;;;;17.34;56.05;100013.81;5058882;28;20087;-73
2023/05/05 03:26:06;;;;;;;4.70;1.15;;;;;;;17.31;56.27;100014.78;5063760;28;20039;-73
2023/05/05 03:28:32;;;;;;;5.93;1.20;;;;;;;17.29;56.35;100010.44;5058211;28;20039;-73
2023/05/05 03:30:57;;;;;;;5.77;1.10;;;;;;;17.29;56.32;100008.63;5059670;28;20016;-73
2023/05/05 03:33:22;;;;;;;4.73;1.30;;;;;;;17.28;56.56;100011.38;5077974;28;20021;-73
2023/05/05 03:35:48;;;;;;;5.80;1.47;;;;;;;17.26;56.59;100015.88;5078211;28;20031;-73
2023/05/05 03:38:13;;;;;;;4.37;1.30;;;;;;;17.20;56.91;100027.59;5060749;28;20271;-73
2023/05/05 03:40:38;;;;;;;6.07;1.13;;;;;;;17.14;56.99;100025.16;5078346;28;20108;-73
2023/05/05 03:43:04;;;;;;;7.03;1.40;;;;;;;17.13;56.63;100023.44;5058822;28;20450;-73
2023/05/05 03:45:29;;;;;;;6.93;1.43;;;;;;;17.08;56.71;100020.94;5057524;28;20104;-73
2023/05/05 03:47:55;;;;;;;4.13;1.40;;;;;;;17.05;56.81;100029.88;5057999;28;20591;-73
2023/05/05 03:50:21;;;;;;;5.25;1.38;;;;;;;17.02;56.94;100029.97;5072038;28;20024;-73
2023/05/05 03:52:46;;;;;;;5.40;1.30;;;;;;;17.02;57.00;100032.63;5057903;28;20033;-73
2023/05/05 03:55:11;;;;;;;7.80;1.42;;;;;;;17.01;57.22;100027.41;5039793;28;20088;-74
2023/05/05 03:57:37;;;;;;;5.77;1.40;;;;;;;17.00;57.12;100031.81;5039882;28;20067;-74
2023/05/05 04:00:03;;;;;;;5.20;1.40;;;;;;;16.98;57.24;100025.69;5043854;28;20056;-74
2023/05/05 04:02:28;;;;;;;5.97;1.40;;;;;;;16.98;57.20;100024.78;5057615;28;20029;-73
2023/05/05 04:04:54;;;;;;;5.27;1.33;;;;;;;16.96;57.28;100030.16;5057652;28;20624;-73
2023/05/05 04:07:21;;;;;;;8.47;1.50;;;;;;;16.90;57.27;100028.56;5057665;28;20025;-74
2023/05/05 04:09:46;;;;;;;4.60;1.27;;;;;;;16.87;57.46;100022.47;5068931;28;20127;-73
2023/05/05 04:12:12;;;;;;;4.60;1.37;;;;;;;16.85;57.42;100022.56;5057565;28;20044;-73
2023/05/05 04:14:38;;;;;;;5.65;1.30;;;;;;;16.83;57.44;100021.75;5057076;28;20017;-73
2023/05/05 04:17:05;;;;;;;5.50;1.30;;;;;;;16.82;57.48;100029.75;5070834;28;20100;-73
2023/05/05 04:19:33;;;;;;;4.20;1.38;;;;;;;16.78;57.64;100024.53;5039499;28;20025;-73
2023/05/05 04:21:59;;;;;;;4.78;1.20;;;;;;;16.76;57.58;100030.84;5057533;28;20029;-74
2023/05/05 04:24:24;;;;;;;6.03;1.30;;;;;;;16.75;57.83;100042.38;5070212;28;20051;-74
2023/05/05 04:26:50;;;;;;;5.88;1.63;;;;;;;16.73;57.93;100046.88;5061876;28;20025;-74
2023/05/05 04:29:16;;;;;;;6.43;1.93;;;;;;;16.71;57.70;100046.94;5057107;28;20515;-73
2023/05/05 04:31:42;;;;;;;4.40;1.33;;;;;;;16.65;57.88;100048.03;5064600;28;20013;-73
2023/05/05 04:34:07;;;;;;;4.85;1.40;;;;;;;16.60;57.98;100047.31;5071339;28;20029;-74
2023/05/05 04:36:33;;;;;;;5.00;1.60;;;;;;;16.58;57.91;100043.84;5077027;28;20017;-73
2023/05/05 04:38:59;;;;;;;7.40;1.47;;;;;;;16.54;58.10;100050.16;5077331;28;20447;-74
2023/05/05 04:41:24;;;;;;;5.00;1.47;;;;;;;16.53;58.20;100055.53;5069975;28;20689;-73
2023/05/05 04:43:50;;;;;;;6.23;1.50;;;;;;;16.49;58.28;100044.09;5056939;28;20036;-74
2023/05/05 04:46:15;;;;;;;4.63;1.30;;;;;;;16.46;58.38;100055.72;5062471;28;20017;-74
2023/05/05 04:48:40;;;;;;;5.30;1.40;;;;;;;16.43;58.38;100055.84;5038750;28;20497;-74
2023/05/05 04:51:06;;;;;;;4.30;1.47;;;;;;;16.42;58.27;100061.19;5061414;28;20508;-73
2023/05/05 04:53:32;;;;;;;6.17;1.60;;;;;;;16.39;58.39;100063.94;5039000;28;20021;-74
2023/05/05 04:55:59;;;;;;;6.40;1.58;;;;;;;16.35;58.60;100064.03;5056654;28;20493;-73
2023/05/05 04:58:25;;;;;;;5.20;1.50;;;;;;;16.30;58.67;100060.66;5038642;28;20060;-73
2023/05/05 05:00:51;;;;;;;7.63;1.60;;;;;;;16.26;58.88;100064.31;5061405;28;20029;-73
2023/05/05 05:03:16;;;;;;;5.13;1.70;;;;;;;16.25;58.77;100075.84;5056722;28;20025;-73
2023/05/05 05:05:41;;;;;;;5.73;1.80;;;;;;;16.25;58.88;100078.50;5056373;28;20044;-73
2023/05/05 05:08:07;;;;;;;6.77;2.03;;;;;;;16.27;58.90;100075.81;5056533;28;20047;-73
2023/05/05 05:10:32;;;;;;;9.07;1.80;;;;;;;16.27;58.72;100081.13;5067637;28;20036;-73
2023/05/05 05:12:57;;;;;;;7.95;1.60;;;;;;;16.25;58.80;100083.81;5038565;28;20057;-74
2023/05/05 05:15:23;;;;;;;6.43;1.40;;;;;;;16.22;58.76;100083.91;5056217;28;20024;-73
2023/05/05 05:17:48;;;;;;;5.83;1.70;;;;;;;16.23;58.97;100090.13;5069595;28;20094;-74
2023/05/05 05:20:14;;;;;;;7.60;1.80;;;;;;;16.24;58.75;100087.41;5056472;28;20036;-73
2023/05/05 05:22:39;;;;;;;11.10;1.92;;;;;;;16.25;58.92;100090.94;5069603;28;20032;-73
2023/05/05 05:25:05;;;;;;;5.60;1.50;;;;;;;16.27;58.82;100103.25;5075817;28;20037;-73
2023/05/05 05:27:30;;;;;;;8.70;2.08;;;;;;;16.23;58.74;100098.09;5063236;28;20024;-73
2023/05/05 05:29:56;;;;;;;8.17;2.03;;;;;;;16.21;58.91;100098.13;5055990;28;20355;-73
2023/05/05 05:32:21;;;;;;;5.87;1.53;;;;;;;16.21;59.05;100104.31;5056325;28;20025;-73
2023/05/05 05:34:47;;;;;;;5.30;1.73;;;;;;;16.24;58.64;100099.81;5075645;28;20626;-73
2023/05/05 05:37:12;;;;;;;8.40;2.00;;;;;;;16.27;58.72;100107.69;5076390;28;20116;-73
2023/05/05 05:39:37;;;;;;;5.60;2.00;;;;;;;16.49;58.30;100103.47;5076419;28;20101;-73
2023/05/05 05:42:03;;;;;;;7.00;2.00;;;;;;;16.79;57.69;100100.75;5067510;28;20017;-73
2023/05/05 05:44:28;;;;;;;6.03;1.73;;;;;;;17.11;56.97;100110.38;5059957;28;20033;-73
2023/05/05 05:46:53;;;;;;;5.73;1.93;;;;;;;17.35;56.10;100106.03;5077643;28;20031;-73
2023/05/05 05:49:19;;;;;;;8.17;1.67;;;;;;;17.62;55.67;100095.31;5080251;28;20035;-73
2023/05/05 05:51:44;;;;;;;6.87;1.40;;;;;;;17.88;54.75;100096.16;5067626;28;20351;-73
2023/05/05 05:54:10;;;;;;;7.47;1.47;;;;;;;18.11;54.35;100097.13;5060091;28;20029;-73
2023/05/05 05:56:35;;;;;;;5.23;1.40;;;;;;;18.34;54.20;100099.75;5060054;28;20512;-73
2023/05/05 05:59:03;;;;;;;6.65;1.33;;;;;;;18.53;53.42;100101.72;5059524;28;20057;-73
2023/05/05 06:01:28;;;;;;;5.68;1.20;;;;;;;18.65;53.16;100098.53;5065053;28;20059;-74
2023/05/05 06:03:54;;;;;;;5.00;1.30;;;;;;;18.78;53.00;100104.25;5059947;28;20033;-74
2023/05/05 06:06:20;;;;;;;4.03;1.10;;;;;;;18.76;52.35;100099.91;5060002;28;20033;-74
2023/05/05 06:08:45;;;;;;;6.25;1.27;;;;;;;18.80;52.24;100106.84;5045082;28;20036;-74
2023/05/05 06:11:10;;;;;;;4.53;1.30;;;;;;;18.89;52.04;100116.28;5067552;28;20128;-74
2023/05/05 06:13:36;;;;;;;5.30;1.30;;;;;;;18.86;51.99;100125.28;5059609;28;20425;-74
2023/05/05 06:16:02;;;;;;;6.50;1.50;;;;;;;18.77;51.89;100120.31;5070025;28;20028;-74
2023/05/05 06:18:27;;;;;;;6.28;1.20;;;;;;;18.69;52.14;100115.28;5061655;28;20542;-74
2023/05/05 06:20:53;;;;;;;6.47;1.30;;;;;;;18.65;52.28;100119.03;5071315;28;20033;-74
2023/05/05 06:23:18;;;;;;;4.93;1.23;;;;;;;18.76;51.99;100121.25;5079342;28;20028;-75
2023/05/05 06:25:43;;;;;;;7.40;1.30;;;;;;;18.80;51.91;100130.88;5070575;28;20530;-75
2023/05/05 06:28:09;;;;;;;5.70;1.33;;;;;;;18.74;52.19;100128.47;5079497;28;20036;-74
2023/05/05 06:30:34;;;;;;;4.10;1.07;;;;;;;18.70;52.09;100130.38;5075789;28;20455;-74
2023/05/05 06:33:00;;;;;;;5.93;1.20;;;;;;;18.67;52.08;100129.59;5064159;28;20032;-75
2023/05/05 06:35:25;;;;;;;6.93;1.20;;;;;;;18.72;51.96;100130.31;5079354;28;20032;-75
2023/05/05 06:37:50;;;;;;;4.83;1.23;;;;;;;18.73;52.24;100127.56;5079284;28;20689;-75
2023/05/05 06:40:16;;;;;;;8.27;1.40;;;;;;;18.87;51.81;100135.00;5079329;28;20032;-75
2023/05/05 06:42:41;;;;;;;6.13;1.77;;;;;;;18.85;51.63;100130.69;5061032;28;20029;-75
2023/05/05 06:45:07;;;;;;;5.15;1.30;;;;;;;18.87;51.31;100128.81;5043704;28;20113;-75
2023/05/05 06:47:33;;;;;;;7.90;1.50;;;;;;;19.04;50.74;100131.69;5061314;28;20417;-75
2023/05/05 06:49:58;;;;;;;9.52;1.70;;;;;;;19.11;50.74;100142.97;5060898;28;20028;-75
2023/05/05 06:52:24;;;;;;;4.23;1.23;;;;;;;18.97;51.00;100150.66;5060486;28;20062;-76
2023/05/05 06:54:50;;;;;;;5.32;1.30;;;;;;;19.05;50.56;100149.44;5058951;28;20052;-75
2023/05/05 06:57:15;;;;;;;4.90;1.30;;;;;;;19.05;50.52;100148.56;5058833;28;20025;-75
2023/05/05 06:59:40;;;;;;;5.60;1.53;;;;;;;19.05;50.63;100148.56;5060963;28;20132;-75
2023/05/05 07:02:06;;;;;;;5.23;1.30;;;;;;;19.14;50.57;100148.19;5061419;28;20029;-75
2023/05/05 07:04:31;;;;;;;5.35;1.35;;;;;;;19.25;50.68;100152.22;5058713;28;20052;-75
2023/05/05 07:06:57;;;;;;;6.07;1.37;;;;;;;19.28;50.32;100160.09;5058672;28;20017;-75
2023/05/05 07:09:22;;;;;;;5.57;1.50;;;;;;;19.31;50.60;100159.97;5067471;28;20020;-74
2023/05/05 07:11:48;;;;;;;6.22;1.40;;;;;;;19.38;50.57;100157.91;5061767;28;20807;-75
2023/05/05 07:14:14;;;;;;;8.57;1.63;;;;;;;19.40;50.40;100162.22;5058755;28;20029;-75
2023/05/05 07:16:39;;;;;;;4.97;1.48;;;;;;;19.41;50.38;100160.44;5071182;28;20559;-74
2023/05/05 07:19:05;;;;;;;7.47;1.80;;;;;;;19.41;50.75;100161.31;5078668;28;20503;-74
2023/05/05 07:21:32;;;;;;;4.27;1.50;;;;;;;19.45;50.58;100162.03;5060563;28;20070;-74
2023/05/05 07:23:58;;;;;;;6.65;1.30;;;;;;;19.54;50.44;100167.00;5067912;28;20029;-75
2023/05/05 07:26:23;;;;;;;5.13;1.43;;;;;;;19.54;50.20;100174.13;5058358;28;20104;-75
2023/05/05 07:28:50;;;;;;;6.82;1.30;;;;;;;19.50;50.25;100170.72;5058478;28;20033;-77
2023/05/05 07:31:18;;;;;;;5.90;1.20;;;;;;;19.64;49.91;100173.66;5057859;28;20033;-76
2023/05/05 07:33:43;;;;;;;3.78;1.10;;;;;;;19.75;50.20;100189.22;5069126;28;20028;-77
2023/05/05 07:36:09;;;;;;;3.67;1.30;;;;;;;19.90;49.19;100176.16;5078185;28;20465;-75
2023/05/05 07:38:34;;;;;;;7.20;1.70;;;;;;;19.94;49.46;100172.44;5078454;28;20039;-75
2023/05/05 07:41:00;;;;;;;3.87;1.40;;;;;;;20.12;49.05;100169.84;5074491;28;20063;-75
2023/05/05 07:43:25;;;;;;;4.93;1.43;;;;;;;20.36;48.68;100167.84;5058134;28;20640;-75
2023/05/05 07:45:51;;;;;;;5.97;1.40;;;;;;;20.60;48.18;100163.13;5044775;28;20084;-75
2023/05/05 07:48:16;;;;;;;6.40;1.10;;;;;;;20.83;48.10;100163.88;5058022;28;20029;-78
2023/05/05 07:50:41;;;;;;;5.63;1.30;;;;;;;21.11;46.99;100161.66;5061653;28;20029;-76
2023/05/05 07:53:07;;;;;;;4.95;1.30;;;;;;;21.29;46.35;100160.75;5058033;28;20084;-77
2023/05/05 07:55:32;;;;;;;5.00;1.30;;;;;;;21.33;45.26;100164.13;5057801;28;20460;-77
2023/05/05 07:57:57;;;;;;;5.30;1.17;;;;;;;21.43;46.05;100162.72;5039844;28;20029;-77
2023/05/05 08:00:23;;;;;;;5.67;1.33;;;;;;;21.63;45.04;100166.19;5061890;28;20128;-77
2023/05/05 08:02:48;;;;;;;5.60;1.20;;;;;;;21.65;44.89;100156.28;5057545;28;20447;-81
2023/05/05 08:05:14;;;;;;;6.78;1.30;;;;;;;21.64;44.98;100167.91;5057605;28;20028;-77
2023/05/05 08:07:40;;;;;;;4.57;1.30;;;;;;;21.65;45.30;100157.13;5057646;28;20028;-78
2023/05/05 08:10:10;;;;;;;11.98;2.13;;;;;;;21.59;45.56;100162.78;5068820;28;20049;-76
2023/05/05 08:12:36;;;;;;;7.23;1.40;;;;;;;21.59;45.96;100159.25;5044994;28;20028;-78
2023/05/05 08:15:01;;;;;;;5.57;1.30;;;;;;;21.69;45.79;100168.56;5059136;28;20048;-77
2023/05/05 08:17:27;;;;;;;6.90;1.50;;;;;;;21.83;45.81;100164.31;5073569;28;20064;-80
2023/05/05 08:19:52;;;;;;;6.73;1.50;;;;;;;21.92;45.87;100171.84;5073755;28;20025;-79
2023/05/05 08:22:17;;;;;;;6.30;1.48;;;;;;;21.97;45.50;100160.91;5077432;28;20043;-76
2023/05/05 08:24:43;;;;;;;6.00;1.23;;;;;;;21.96;45.17;100154.66;5073392;28;20025;-80
2023/05/05 08:27:08;;;;;;;4.60;1.27;;;;;;;22.08;45.47;100158.50;5057465;28;20107;-80
2023/05/05 08:29:34;;;;;;;6.57;1.83;;;;;;;22.16;45.06;100158.94;5056968;28;20025;-78
2023/05/05 08:31:59;;;;;;;6.47;1.50;;;;;;;22.29;45.33;100159.13;5056964;28;20323;-77
2023/05/05 08:34:24;;;;;;;9.03;1.77;;;;;;;22.41;45.46;100154.88;5073531;28;20534;-78
2023/05/05 08:36:50;;;;;;;5.40;1.50;;;;;;;22.43;45.03;100155.69;5077005;28;20117;-77
2023/05/05 08:39:15;;;;;;;5.03;1.40;;;;;;;22.58;44.88;100151.31;5077041;28;20025;-77
2023/05/05 08:41:41;;;;;;;7.10;1.40;;;;;;;22.64;45.13;100147.41;5068113;28;20031;-81
2023/05/05 08:44:07;;;;;;;5.00;1.50;;;;;;;22.87;45.06;100148.78;5056769;28;20033;-79
2023/05/05 08:46:35;;;;;;;7.35;1.48;;;;;;;22.98;44.70;100147.28;5062491;28;20396;-79
2023/05/05 08:49:02;;;;;;;5.72;1.75;;;;;;;23.06;44.97;100145.03;5056802;28;20120;-79
2023/05/05 08:51:31;;;;;;;6.43;1.60;;;;;;;22.98;44.85;100144.59;5061751;28;20021;-79
2023/05/05 08:54:04;;;;;;;5.47;1.85;;;;;;;22.77;45.33;100145.78;5056817;28;20031;-82
2023/05/05 08:56:38;;;;;;;6.40;1.70;;;;;;;22.82;45.31;100150.88;5056718;28;20029;-83
2023/05/05 08:59:03;;;;;;;6.00;1.52;;;;;;;22.99;45.14;100152.59;5056338;28;20386;-77
2023/05/05 09:01:31;;;;;;;11.10;1.60;;;;;;;23.17;44.78;100153.31;5061757;28;20047;-78
2023/05/05 09:03:58;;;;;;;5.75;1.65;;;;;;;23.41;44.99;100155.53;5056625;28;20398;-84
2023/05/05 09:06:25;;;;;;;5.03;1.70;;;;;;;23.69;44.63;100148.50;5038690;28;20135;-84
2023/05/05 09:08:52;;;;;;;7.00;1.60;;;;;;;23.87;44.03;100151.03;5061646;28;20020;-84
2023/05/05 09:11:17;;;;;;;6.22;1.77;;;;;;;24.00;43.90;100153.81;5064005;28;20489;-83
2023/05/05 09:13:43;;;;;;;6.00;1.70;;;;;;;24.01;43.78;100153.75;5075910;28;20035;-84
2023/05/05 09:16:08;;;;;;;5.95;1.80;;;;;;;24.16;43.73;100142.97;5057421;28;20460;-83
2023/05/05 09:18:36;;;;;;;5.57;1.70;;;;;;;24.23;43.94;100147.88;5057166;28;20025;-79
2023/05/05 09:21:24;;;;;;;7.30;1.80;;;;;;;24.18;43.65;100157.19;5069778;28;20020;-79
2023/05/05 09:24:10;;;;;;;5.88;2.00;;;;;;;24.26;43.86;100146.84;5065648;28;20027;-79
2023/05/05 09:26:38;;;;;;;8.43;1.90;;;;;;;24.45;44.01;100151.91;5044845;28;20027;-79
2023/05/05 09:29:04;;;;;;;7.13;1.92;;;;;;;24.52;43.66;100149.69;5063962;28;20029;-78
2023/05/05 09:31:31;;;;;;;6.60;1.93;;;;;;;24.43;43.76;100153.81;5055878;28;20027;-79
2023/05/05 09:33:59;;;;;;;4.82;1.60;;;;;;;24.36;43.67;100156.03;5068601;28;20631;-79
2023/05/05 09:36:48;;;;;;;5.30;2.00;;;;;;;24.35;43.94;100146.25;5056625;28;20029;-79
2023/05/05 09:39:16;;;;;;;5.57;1.83;;;;;;;24.48;43.74;100150.84;5038459;28;20037;-78
2023/05/05 09:41:43;;;;;;;7.80;2.03;;;;;;;24.62;43.82;100152.66;5048350;28;20053;-79
2023/05/05 09:44:09;;;;;;;6.17;1.80;;;;;;;24.71;43.28;100151.16;5055988;28;20029;-79
2023/05/05 09:46:34;;;;;;;6.05;2.10;;;;;;;24.71;42.85;100145.78;5070831;28;20032;-79
2023/05/05 09:49:15;;;;;;;5.60;1.90;;;;;;;24.77;43.06;100150.81;5076207;28;20028;-79
2023/05/05 09:51:40;;;;;;;5.93;1.80;;;;;;;24.92;42.74;100144.38;5046816;28;20549;-80
2023/05/05 09:54:06;;;;;;;9.17;2.23;;;;;;;25.03;42.74;100142.81;5056193;28;20075;-80
2023/05/05 09:56:41;;;;;;;4.03;1.73;;;;;;;25.13;42.71;100143.91;5056070;28;20290;-80
2023/05/05 09:59:10;;;;;;;5.03;1.80;;;;;;;25.27;42.86;100139.44;5055636;28;20045;-79
2023/05/05 10:01:37;;;;;;;5.03;1.95;;;;;;;25.35;42.68;100143.34;5061155;28;20060;-82
2023/05/05 10:04:02;;;;;;;6.53;1.97;;;;;;;25.34;42.54;100140.75;5056211;28;20029;-82
2023/05/05 10:06:46;;;;;;;6.50;1.70;;;;;;;25.43;42.30;100145.50;5072509;28;20021;-82
2023/05/05 10:09:12;;;;;;;7.05;2.10;;;;;;;25.65;43.02;100147.63;5076100;28;20099;-84
2023/05/05 10:11:45;;;;;;;6.90;2.10;;;;;;;25.67;42.42;100136.72;5059820;28;20025;-80
2023/05/05 10:14:13;;;;;;;6.32;2.10;;;;;;;25.61;42.11;100140.72;5038319;28;20033;-79
2023/05/05 10:16:48;;;;;;;6.40;2.10;;;;;;;25.70;41.87;100133.81;5072152;28;20092;-79
2023/05/05 10:19:15;;;;;;;5.30;2.00;;;;;;;25.93;41.81;100128.63;5038146;28;20036;-79
2023/05/05 10:21:45;;;;;;;5.38;1.98;;;;;;;26.12;41.58;100119.22;5055814;28;20036;-80
2023/05/05 10:24:16;;;;;;;9.87;2.27;;;;;;;26.15;41.81;100110.88;5055785;28;20033;-81
2023/05/05 10:26:43;;;;;;;4.70;1.98;;;;;;;26.07;41.35;100112.31;5057225;28;20499;-79
2023/05/05 10:29:21;;;;;;;6.05;1.90;;;;;;;26.17;41.86;100119.78;5059462;28;20037;-79
2023/05/05 10:31:52;;;;;;;5.35;2.08;;;;;;;26.26;41.61;100119.13;5059141;28;20079;-84
2023/05/05 10:34:45;;;;;;;6.47;2.33;;;;;;;26.31;41.12;100122.34;5075103;28;20028;-84
2023/05/05 10:37:10;;;;;;;5.30;1.83;;;;;;;26.32;41.72;100113.25;5079610;28;20744;-78
2023/05/05 10:39:37;;;;;;;7.97;2.30;;;;;;;26.33;42.03;100114.13;5079255;28;20028;-78
2023/05/05 10:42:02;;;;;;;5.97;2.05;;;;;;;26.39;41.50;100107.41;5067280;28;20090;-78
2023/05/05 10:44:32;;;;;;;6.43;2.50;;;;;;;26.41;41.49;100106.34;5058976;28;20032;-79
2023/05/05 10:46:58;;;;;;;5.88;2.20;;;;;;;26.55;41.49;100102.59;5076979;28;20028;-79
2023/05/05 10:49:46;;;;;;;6.50;2.00;;;;;;;26.64;42.13;100107.31;5079248;28;20035;-79
2023/05/05 10:52:12;;;;;;;6.93;2.10;;;;;;;26.67;41.87;100100.84;5056608;28;20040;-81
2023/05/05 10:55:00;;;;;;;5.85;1.88;;;;;;;26.73;41.45;100094.13;5078982;28;20029;-80
2023/05/05 10:57:27;;;;;;;5.32;1.75;;;;;;;26.98;41.31;100103.09;5079040;28;20035;-81
2023/05/05 10:59:53;;;;;;;5.07;2.27;;;;;;;27.03;40.73;100090.97;5053092;28;20048;-80
2023/05/05 11:02:20;;;;;;;8.32;2.58;;;;;;;26.90;41.04;100095.56;5052064;28;20621;-78
2023/05/05 11:05:03;;;;;;;5.53;2.20;;;;;;;26.69;40.85;100098.03;5059162;28;20021;-78
2023/05/05 11:07:29;;;;;;;5.43;2.17;;;;;;;26.91;41.51;100092.78;5058848;28;20033;-80
2023/05/05 11:10:08;;;;;;;6.70;2.20;;;;;;;27.05;41.28;100088.13;5057479;28;20032;-79
2023/05/05 11:12:58;;;;;;;6.90;2.03;;;;;;;26.96;41.46;100083.44;5038658;28;20512;-79
2023/05/05 11:15:27;;;;;;;7.40;2.57;;;;;;;27.01;41.39;100083.94;5042663;28;20022;-78
2023/05/05 11:17:57;;;;;;;6.20;2.30;;;;;;;27.01;41.30;100076.72;5052241;28;20025;-80
2023/05/05 11:20:38;;;;;;;6.40;2.30;;;;;;;26.90;41.07;100069.44;5045522;28;20044;-77
2023/05/05 11:23:03;;;;;;;6.88;2.05;;;;;;;26.89;41.14;100069.53;5054846;28;20032;-78
2023/05/05 11:25:35;;;;;;;6.20;2.30;;;;;;;26.71;40.93;100069.06;5038741;28;20040;-77
2023/05/05 11:28:07;;;;;;;6.97;2.08;;;;;;;26.74;41.19;100064.28;5038522;28;20034;-78